TAF KVIS
AMD KVIS 090726Z 0907/1006 32003KT 4SM BR OVC050 FM091100 VRB03KT 4SM -RA BR OVC040 TEMPO 0913/0917 2SM RA BR OVC020 FM092000 VRB03KT 5SM BR OVC050 FM100000 33006KT 5SM BR SCT050 BKN080=
METAR KVIS
WC KVIS
WS KVIS
WV KVIS